sensor_id;sensor_type;location;lat;lon;timestamp;pressure;altitude;pressure_sealevel;temperature;humidity
38806;BME280;25635;51.146;17.162;2022-09-21T00:01:19;100663.34;;;7.20;92.22
38806;BME280;25635;51.146;17.162;2022-09-21T00:03:52;100662.88;;;7.19;92.23
38806;BME280;25635;51.146;17.162;2022-09-21T00:06:21;100659.84;;;7.18;92.74
38806;BME280;25635;51.146;17.162;2022-09-21T00:08:50;100669.81;;;7.19;92.27
38806;BME280;25635;51.146;17.162;2022-09-21T00:11:25;100668.95;;;7.18;92.35
38806;BME280;25635;51.146;17.162;2022-09-21T00:13:56;100665.07;;;7.21;92.35
38806;BME280;25635;51.146;17.162;2022-09-21T00:16:26;100665.07;;;7.21;92.36
38806;BME280;25635;51.146;17.162;2022-09-21T00:18:54;100662.91;;;7.21;92.29
38806;BME280;25635;51.146;17.162;2022-09-21T00:21:20;100660.73;;;7.20;92.35
38806;BME280;25635;51.146;17.162;2022-09-21T00:23:46;100663.34;;;7.20;92.20
38806;BME280;25635;51.146;17.162;2022-09-21T00:26:18;100665.89;;;7.16;92.12
38806;BME280;25635;51.146;17.162;2022-09-21T00:28:46;100669.30;;;7.12;92.23
38806;BME280;25635;51.146;17.162;2022-09-21T00:31:15;100672.70;;;7.09;92.64
38806;BME280;25635;51.146;17.162;2022-09-21T00:33:43;100674.84;;;7.06;92.83
38806;BME280;25635;51.146;17.162;2022-09-21T00:36:13;100671.76;;;7.01;92.32
38806;BME280;25635;51.146;17.162;2022-09-21T00:38:42;100673.05;;;7.02;92.51
38806;BME280;25635;51.146;17.162;2022-09-21T00:41:10;100671.76;;;7.01;92.63
38806;BME280;25635;51.146;17.162;2022-09-21T00:43:41;100670.42;;;6.99;92.77
38806;BME280;25635;51.146;17.162;2022-09-21T00:46:26;100678.23;;;6.99;92.61
38806;BME280;25635;51.146;17.162;2022-09-21T00:48:54;100677.36;;;7.00;92.61
38806;BME280;25635;51.146;17.162;2022-09-21T00:51:22;100675.16;;;6.98;92.56
38806;BME280;25635;51.146;17.162;2022-09-21T00:53:51;100674.73;;;6.97;92.62
38806;BME280;25635;51.146;17.162;2022-09-21T00:56:19;100673.86;;;6.98;92.82
38806;BME280;25635;51.146;17.162;2022-09-21T00:58:48;100677.33;;;6.97;92.90
38806;BME280;25635;51.146;17.162;2022-09-21T01:01:16;100679.88;;;6.94;92.83
38806;BME280;25635;51.146;17.162;2022-09-21T01:03:44;100681.14;;;6.91;93.80
38806;BME280;25635;51.146;17.162;2022-09-21T01:06:12;100680.64;;;6.87;93.32
38806;BME280;25635;51.146;17.162;2022-09-21T01:08:41;100681.88;;;6.84;93.35
38806;BME280;25635;51.146;17.162;2022-09-21T01:17:01;100680.95;;;6.79;93.65
38806;BME280;25635;51.146;17.162;2022-09-21T01:29:00;100686.52;;;6.75;94.10
38806;BME280;25635;51.146;17.162;2022-09-21T01:31:30;100693.89;;;6.74;93.97
38806;BME280;25635;51.146;17.162;2022-09-21T01:34:00;100697.36;;;6.75;94.24
38806;BME280;25635;51.146;17.162;2022-09-21T01:36:30;100699.98;;;6.76;94.06
38806;BME280;25635;51.146;17.162;2022-09-21T01:39:05;100699.09;;;6.74;94.31
38806;BME280;25635;51.146;17.162;2022-09-21T01:41:31;100705.16;;;6.75;94.17
38806;BME280;25635;51.146;17.162;2022-09-21T01:44:05;100702.59;;;6.76;94.15
38806;BME280;25635;51.146;17.162;2022-09-21T01:46:34;100703.02;;;6.76;94.39
38806;BME280;25635;51.146;17.162;2022-09-21T01:49:07;100712.55;;;6.77;94.10
38806;BME280;25635;51.146;17.162;2022-09-21T01:51:41;100711.25;;;6.77;94.19
38806;BME280;25635;51.146;17.162;2022-09-21T01:54:11;100710.82;;;6.77;94.27
38806;BME280;25635;51.146;17.162;2022-09-21T01:59:48;100709.98;;;6.78;94.39
38806;BME280;25635;51.146;17.162;2022-09-21T02:02:23;100709.52;;;6.76;94.28
38806;BME280;25635;51.146;17.162;2022-09-21T02:04:51;100715.55;;;6.75;94.86
38806;BME280;25635;51.146;17.162;2022-09-21T02:07:18;100717.28;;;6.74;95.24
38806;BME280;25635;51.146;17.162;2022-09-21T02:09:45;100709.48;;;6.74;95.22
38806;BME280;25635;51.146;17.162;2022-09-21T02:12:12;100710.82;;;6.76;95.01
38806;BME280;25635;51.146;17.162;2022-09-21T02:14:39;100720.82;;;6.78;95.33
38806;BME280;25635;51.146;17.162;2022-09-21T02:17:25;100723.48;;;6.82;95.47
38806;BME280;25635;51.146;17.162;2022-09-21T02:23:01;100717.88;;;6.86;95.76
38806;BME280;25635;51.146;17.162;2022-09-21T02:25:46;100717.52;;;6.89;95.85
38806;BME280;25635;51.146;17.162;2022-09-21T02:28:40;100723.17;;;6.92;95.68
38806;BME280;25635;51.146;17.162;2022-09-21T02:36:43;100727.67;;;7.02;95.94
38806;BME280;25635;51.146;17.162;2022-09-21T02:42:23;100725.22;;;7.12;95.71
38806;BME280;25635;51.146;17.162;2022-09-21T02:47:41;100728.72;;;7.15;95.88
38806;BME280;25635;51.146;17.162;2022-09-21T02:50:23;100725.31;;;7.18;95.78
38806;BME280;25635;51.146;17.162;2022-09-21T02:52:53;100730.95;;;7.19;96.04
38806;BME280;25635;51.146;17.162;2022-09-21T02:55:21;100729.65;;;7.19;96.41
38806;BME280;25635;51.146;17.162;2022-09-21T02:57:49;100730.98;;;7.20;96.17
38806;BME280;25635;51.146;17.162;2022-09-21T03:00:15;100737.08;;;7.22;96.34
38806;BME280;25635;51.146;17.162;2022-09-21T03:02:44;100735.80;;;7.25;96.58
38806;BME280;25635;51.146;17.162;2022-09-21T03:05:12;100747.58;;;7.28;96.42
38806;BME280;25635;51.146;17.162;2022-09-21T03:07:40;100744.59;;;7.32;96.64
38806;BME280;25635;51.146;17.162;2022-09-21T03:10:07;100747.23;;;7.35;96.49
38806;BME280;25635;51.146;17.162;2022-09-21T03:12:33;100748.16;;;7.39;96.52
38806;BME280;25635;51.146;17.162;2022-09-21T03:15:00;100747.31;;;7.41;96.49
38806;BME280;25635;51.146;17.162;2022-09-21T03:17:26;100742.54;;;7.42;96.63
38806;BME280;25635;51.146;17.162;2022-09-21T03:19:53;100747.38;;;7.46;96.41
38806;BME280;25635;51.146;17.162;2022-09-21T03:22:22;100736.52;;;7.46;96.59
38806;BME280;25635;51.146;17.162;2022-09-21T03:24:48;100737.86;;;7.48;96.55
38806;BME280;25635;51.146;17.162;2022-09-21T03:27:18;100737.88;;;7.49;96.87
38806;BME280;25635;51.146;17.162;2022-09-21T03:29:46;100741.38;;;7.51;96.56
38806;BME280;25635;51.146;17.162;2022-09-21T03:32:13;100744.01;;;7.55;96.56
38806;BME280;25635;51.146;17.162;2022-09-21T03:34:40;100745.77;;;7.56;96.58
38806;BME280;25635;51.146;17.162;2022-09-21T03:37:08;100744.50;;;7.59;96.40
38806;BME280;25635;51.146;17.162;2022-09-21T03:39:35;100744.09;;;7.59;96.26
38806;BME280;25635;51.146;17.162;2022-09-21T03:42:02;100741.05;;;7.61;96.59
38806;BME280;25635;51.146;17.162;2022-09-21T03:44:29;100746.26;;;7.61;96.31
38806;BME280;25635;51.146;17.162;2022-09-21T03:46:55;100748.45;;;7.63;96.21
38806;BME280;25635;51.146;17.162;2022-09-21T03:49:22;100745.44;;;7.65;96.34
38806;BME280;25635;51.146;17.162;2022-09-21T03:51:49;100743.73;;;7.67;96.25
38806;BME280;25635;51.146;17.162;2022-09-21T03:54:15;100753.34;;;7.70;96.15
38806;BME280;25635;51.146;17.162;2022-09-21T03:56:41;100751.16;;;7.71;96.12
38806;BME280;25635;51.146;17.162;2022-09-21T03:59:07;100749.42;;;7.71;96.08
38806;BME280;25635;51.146;17.162;2022-09-21T04:01:33;100750.73;;;7.71;96.30
38806;BME280;25635;51.146;17.162;2022-09-21T04:04:01;100750.73;;;7.71;96.20
38806;BME280;25635;51.146;17.162;2022-09-21T04:06:27;100761.61;;;7.73;96.29
38806;BME280;25635;51.146;17.162;2022-09-21T04:08:54;100759.44;;;7.72;96.04
38806;BME280;25635;51.146;17.162;2022-09-21T04:11:20;100760.30;;;7.73;96.18
38806;BME280;25635;51.146;17.162;2022-09-21T04:13:51;100768.55;;;7.72;96.01
38806;BME280;25635;51.146;17.162;2022-09-21T04:16:24;100774.62;;;7.73;96.09
38806;BME280;25635;51.146;17.162;2022-09-21T04:18:50;100776.36;;;7.72;96.45
38806;BME280;25635;51.146;17.162;2022-09-21T04:21:17;100774.62;;;7.73;96.06
38806;BME280;25635;51.146;17.162;2022-09-21T04:23:44;100770.72;;;7.73;96.23
38806;BME280;25635;51.146;17.162;2022-09-21T04:26:26;100776.80;;;7.73;96.10
38806;BME280;25635;51.146;17.162;2022-09-21T04:28:54;100778.09;;;7.73;96.47
38806;BME280;25635;51.146;17.162;2022-09-21T04:31:22;100778.56;;;7.74;96.11
38806;BME280;25635;51.146;17.162;2022-09-21T04:33:50;100785.09;;;7.77;96.13
38806;BME280;25635;51.146;17.162;2022-09-21T04:36:18;100784.66;;;7.78;96.17
38806;BME280;25635;51.146;17.162;2022-09-21T04:38:47;100789.00;;;7.77;96.05
38806;BME280;25635;51.146;17.162;2022-09-21T04:41:14;100793.37;;;7.78;96.04
38806;BME280;25635;51.146;17.162;2022-09-21T04:43:42;100800.77;;;7.80;95.94
38806;BME280;25635;51.146;17.162;2022-09-21T04:46:12;100799.47;;;7.82;96.00
38806;BME280;25635;51.146;17.162;2022-09-21T04:48:40;100792.98;;;7.83;95.97
38806;BME280;25635;51.146;17.162;2022-09-21T04:51:07;100801.67;;;7.82;95.87
38806;BME280;25635;51.146;17.162;2022-09-21T04:53:37;100802.97;;;7.84;95.88
38806;BME280;25635;51.146;17.162;2022-09-21T04:56:05;100801.72;;;7.87;95.96
38806;BME280;25635;51.146;17.162;2022-09-21T04:58:32;100798.24;;;7.88;96.27
38806;BME280;25635;51.146;17.162;2022-09-21T05:00:59;100798.68;;;7.87;95.98
38806;BME280;25635;51.146;17.162;2022-09-21T05:03:26;100804.32;;;7.88;95.93
38806;BME280;25635;51.146;17.162;2022-09-21T05:05:55;100797.84;;;7.90;95.91
38806;BME280;25635;51.146;17.162;2022-09-21T05:08:23;100798.30;;;7.91;95.99
38806;BME280;25635;51.146;17.162;2022-09-21T05:11:12;100793.98;;;7.95;96.32
38806;BME280;25635;51.146;17.162;2022-09-21T05:13:41;100800.06;;;7.94;95.97
38806;BME280;25635;51.146;17.162;2022-09-21T05:16:08;100799.66;;;7.96;96.13
38806;BME280;25635;51.146;17.162;2022-09-21T05:18:35;100800.48;;;7.95;96.12
38806;BME280;25635;51.146;17.162;2022-09-21T05:21:02;100810.07;;;7.96;96.19
38806;BME280;25635;51.146;17.162;2022-09-21T05:23:30;100815.31;;;7.97;96.24
38806;BME280;25635;51.146;17.162;2022-09-21T05:25:57;100817.04;;;7.98;96.25
38806;BME280;25635;51.146;17.162;2022-09-21T05:28:25;100817.94;;;8.00;96.20
38806;BME280;25635;51.146;17.162;2022-09-21T05:39:52;100820.72;;;8.14;96.32
38806;BME280;25635;51.146;17.162;2022-09-21T05:42:19;100822.02;;;8.16;96.15
38806;BME280;25635;51.146;17.162;2022-09-21T05:44:46;100829.89;;;8.19;96.07
38806;BME280;25635;51.146;17.162;2022-09-21T05:47:38;100828.17;;;8.21;96.14
38806;BME280;25635;51.146;17.162;2022-09-21T05:50:29;100830.83;;;8.25;96.34
38806;BME280;25635;51.146;17.162;2022-09-21T05:56:02;100834.35;;;8.29;95.99
38806;BME280;25635;51.146;17.162;2022-09-21T06:04:23;100831.84;;;8.37;96.28
38806;BME280;25635;51.146;17.162;2022-09-21T06:06:49;100842.27;;;8.38;96.25
38806;BME280;25635;51.146;17.162;2022-09-21T06:09:16;100840.55;;;8.40;96.26
38806;BME280;25635;51.146;17.162;2022-09-21T06:11:42;100844.53;;;8.45;96.53
38806;BME280;25635;51.146;17.162;2022-09-21T06:14:08;100842.89;;;8.51;96.74
38806;BME280;25635;51.146;17.162;2022-09-21T06:16:42;100844.70;;;8.59;97.05
38806;BME280;25635;51.146;17.162;2022-09-21T06:19:12;100848.69;;;8.68;96.98
38806;BME280;25635;51.146;17.162;2022-09-21T06:21:38;100843.56;;;8.76;96.99
38806;BME280;25635;51.146;17.162;2022-09-21T06:24:05;100840.58;;;8.81;96.53
38806;BME280;25635;51.146;17.162;2022-09-21T06:26:32;100844.95;;;8.86;96.86
38806;BME280;25635;51.146;17.162;2022-09-21T06:28:58;100845.47;;;8.95;96.73
38806;BME280;25635;51.146;17.162;2022-09-21T06:31:26;100841.16;;;8.99;96.42
38806;BME280;25635;51.146;17.162;2022-09-21T06:33:52;100842.52;;;9.05;96.38
38806;BME280;25635;51.146;17.162;2022-09-21T06:36:19;100842.98;;;9.09;96.11
38806;BME280;25635;51.146;17.162;2022-09-21T06:38:45;100842.17;;;9.15;95.82
38806;BME280;25635;51.146;17.162;2022-09-21T06:41:12;100840.50;;;9.23;96.06
38806;BME280;25635;51.146;17.162;2022-09-21T06:43:38;100834.02;;;9.30;96.00
38806;BME280;25635;51.146;17.162;2022-09-21T06:46:06;100841.06;;;9.39;96.24
38806;BME280;25635;51.146;17.162;2022-09-21T06:48:33;100841.13;;;9.50;96.34
38806;BME280;25635;51.146;17.162;2022-09-21T06:51:02;100849.45;;;9.62;96.90
38806;BME280;25635;51.146;17.162;2022-09-21T06:53:31;100856.09;;;9.76;96.57
38806;BME280;25635;51.146;17.162;2022-09-21T06:56:00;100857.91;;;9.90;97.10
38806;BME280;25635;51.146;17.162;2022-09-21T06:58:29;100860.56;;;10.01;95.71
38806;BME280;25635;51.146;17.162;2022-09-21T07:00:56;100863.67;;;10.11;96.04
38806;BME280;25635;51.146;17.162;2022-09-21T07:03:23;100859.78;;;10.22;95.28
38806;BME280;25635;51.146;17.162;2022-09-21T07:05:50;100865.03;;;10.27;94.42
38806;BME280;25635;51.146;17.162;2022-09-21T07:08:16;100856.81;;;10.35;93.92
38806;BME280;25635;51.146;17.162;2022-09-21T07:10:42;100864.23;;;10.37;93.41
38806;BME280;25635;51.146;17.162;2022-09-21T07:13:08;100864.72;;;10.46;93.91
38806;BME280;25635;51.146;17.162;2022-09-21T07:15:34;100872.13;;;10.51;92.98
38806;BME280;25635;51.146;17.162;2022-09-21T07:18:09;100878.69;;;10.57;93.12
38806;BME280;25635;51.146;17.162;2022-09-21T07:20:38;100880.44;;;10.57;92.37
38806;BME280;25635;51.146;17.162;2022-09-21T07:23:10;100884.37;;;10.61;92.62
38806;BME280;25635;51.146;17.162;2022-09-21T07:25:40;100886.11;;;10.59;92.17
38806;BME280;25635;51.146;17.162;2022-09-21T07:28:07;100884.80;;;10.59;92.20
38806;BME280;25635;51.146;17.162;2022-09-21T07:30:36;100884.80;;;10.59;92.55
38806;BME280;25635;51.146;17.162;2022-09-21T07:33:04;100888.73;;;10.68;92.65
38806;BME280;25635;51.146;17.162;2022-09-21T07:35:31;100887.02;;;10.73;92.68
38806;BME280;25635;51.146;17.162;2022-09-21T07:38:02;100893.58;;;10.80;92.41
38806;BME280;25635;51.146;17.162;2022-09-21T07:40:31;100891.84;;;10.82;92.03
38806;BME280;25635;51.146;17.162;2022-09-21T07:42:58;100899.69;;;10.86;91.88
38806;BME280;25635;51.146;17.162;2022-09-21T07:45:28;100898.80;;;10.87;91.45
38806;BME280;25635;51.146;17.162;2022-09-21T07:48:05;100900.11;;;10.87;90.98
38806;BME280;25635;51.146;17.162;2022-09-21T07:50:34;100901.44;;;10.86;90.86
38806;BME280;25635;51.146;17.162;2022-09-21T07:53:02;100900.56;;;10.88;91.27
38806;BME280;25635;51.146;17.162;2022-09-21T07:55:29;100898.80;;;10.87;91.27
38806;BME280;25635;51.146;17.162;2022-09-21T07:57:55;100904.48;;;10.91;91.36
38806;BME280;25635;51.146;17.162;2022-09-21T08:00:40;100903.62;;;10.91;91.31
38806;BME280;25635;51.146;17.162;2022-09-21T08:03:06;100905.81;;;10.94;91.62
38806;BME280;25635;51.146;17.162;2022-09-21T08:05:32;100908.89;;;11.00;91.37
38806;BME280;25635;51.146;17.162;2022-09-21T08:07:59;100907.56;;;11.03;91.49
38806;BME280;25635;51.146;17.162;2022-09-21T08:10:25;100905.81;;;11.08;91.28
38806;BME280;25635;51.146;17.162;2022-09-21T08:12:58;100908.88;;;11.12;91.79
38806;BME280;25635;51.146;17.162;2022-09-21T08:15:24;100907.59;;;11.22;91.89
38806;BME280;25635;51.146;17.162;2022-09-21T08:17:53;100906.73;;;11.27;91.86
38806;BME280;25635;51.146;17.162;2022-09-21T08:20:20;100901.48;;;11.32;91.60
38806;BME280;25635;51.146;17.162;2022-09-21T08:22:46;100906.70;;;11.33;90.99
38806;BME280;25635;51.146;17.162;2022-09-21T08:25:13;100909.77;;;11.34;91.14
38806;BME280;25635;51.146;17.162;2022-09-21T08:27:39;100909.33;;;11.41;91.00
38806;BME280;25635;51.146;17.162;2022-09-21T08:30:07;100908.89;;;11.42;91.04
38806;BME280;25635;51.146;17.162;2022-09-21T08:32:34;100909.77;;;11.45;90.50
38806;BME280;25635;51.146;17.162;2022-09-21T08:35:00;100910.64;;;11.46;90.24
38806;BME280;25635;51.146;17.162;2022-09-21T08:37:26;100910.21;;;11.51;90.63
38806;BME280;25635;51.146;17.162;2022-09-21T08:39:54;100908.91;;;11.57;90.80
38806;BME280;25635;51.146;17.162;2022-09-21T08:45:25;100911.50;;;11.74;91.33
38806;BME280;25635;51.146;17.162;2022-09-21T08:47:57;100910.15;;;11.88;91.55
38806;BME280;25635;51.146;17.162;2022-09-21T08:50:34;100913.66;;;11.96;91.01
38806;BME280;25635;51.146;17.162;2022-09-21T08:53:17;100918.05;;;11.99;89.86
38806;BME280;25635;51.146;17.162;2022-09-21T08:55:45;100921.97;;;12.05;90.09
38806;BME280;25635;51.146;17.162;2022-09-21T08:58:29;100919.72;;;12.15;89.45
38806;BME280;25635;51.146;17.162;2022-09-21T09:10:40;100918.36;;;12.36;88.61
38806;BME280;25635;51.146;17.162;2022-09-21T09:16:17;100919.58;;;12.58;89.62
38806;BME280;25635;51.146;17.162;2022-09-21T09:18:52;100912.92;;;12.73;90.99
38806;BME280;25635;51.146;17.162;2022-09-21T09:21:37;100914.58;;;12.88;89.52
38806;BME280;25635;51.146;17.162;2022-09-21T09:26:45;100914.50;;;13.02;88.53
38806;BME280;25635;51.146;17.162;2022-09-21T09:32:00;100904.73;;;13.24;88.07
38806;BME280;25635;51.146;17.162;2022-09-21T09:34:35;100908.58;;;13.38;87.96
38806;BME280;25635;51.146;17.162;2022-09-21T09:37:15;100900.59;;;13.49;86.72
38806;BME280;25635;51.146;17.162;2022-09-21T09:39:43;100910.19;;;13.54;87.00
38806;BME280;25635;51.146;17.162;2022-09-21T09:42:35;100900.93;;;13.64;87.00
38806;BME280;25635;51.146;17.162;2022-09-21T09:50:58;100899.14;;;14.08;87.34
38806;BME280;25635;51.146;17.162;2022-09-21T09:53:25;100893.16;;;14.32;86.82
38806;BME280;25635;51.146;17.162;2022-09-21T09:55:54;100896.95;;;14.44;85.92
38806;BME280;25635;51.146;17.162;2022-09-21T09:58:35;100894.63;;;14.54;85.59
38806;BME280;25635;51.146;17.162;2022-09-21T10:01:08;100895.42;;;14.64;82.91
38806;BME280;25635;51.146;17.162;2022-09-21T10:03:39;100892.13;;;14.78;84.36
38806;BME280;25635;51.146;17.162;2022-09-21T10:06:11;100893.25;;;14.92;82.96
38806;BME280;25635;51.146;17.162;2022-09-21T10:08:43;100892.62;;;15.32;82.84
38806;BME280;25635;51.146;17.162;2022-09-21T10:11:14;100892.62;;;15.32;82.84
38806;BME280;25635;51.146;17.162;2022-09-21T10:13:44;100883.44;;;15.56;82.02
38806;BME280;25635;51.146;17.162;2022-09-21T10:16:22;100883.44;;;15.56;82.02
38806;BME280;25635;51.146;17.162;2022-09-21T10:18:54;100890.22;;;15.70;79.98
38806;BME280;25635;51.146;17.162;2022-09-21T10:21:32;100891.33;;;15.84;81.54
38806;BME280;25635;51.146;17.162;2022-09-21T10:26:50;100894.13;;;15.98;80.67
38806;BME280;25635;51.146;17.162;2022-09-21T10:37:40;100883.57;;;16.42;78.27
38806;BME280;25635;51.146;17.162;2022-09-21T10:42:54;100886.84;;;16.53;77.96
38806;BME280;25635;51.146;17.162;2022-09-21T10:45:26;100880.45;;;16.64;77.60
38806;BME280;25635;51.146;17.162;2022-09-21T10:47:56;100884.98;;;16.78;77.81
38806;BME280;25635;51.146;17.162;2022-09-21T10:50:27;100880.37;;;16.88;78.08
38806;BME280;25635;51.146;17.162;2022-09-21T10:53:22;100874.57;;;16.91;73.98
38806;BME280;25635;51.146;17.162;2022-09-21T10:55:38;100875.08;;;16.88;76.62
38806;BME280;25635;51.146;17.162;2022-09-21T10:58:11;100869.62;;;16.95;76.45
38806;BME280;25635;51.146;17.162;2022-09-21T11:00:41;100868.28;;;16.97;74.10
38806;BME280;25635;51.146;17.162;2022-09-21T11:03:36;100873.97;;;16.98;75.45
38806;BME280;25635;51.146;17.162;2022-09-21T11:06:10;100868.59;;;17.03;76.18
38806;BME280;25635;51.146;17.162;2022-09-21T11:08:48;100868.42;;;17.09;73.78
38806;BME280;25635;51.146;17.162;2022-09-21T11:17:01;100858.25;;;17.11;74.57
38806;BME280;25635;51.146;17.162;2022-09-21T11:19:53;100861.72;;;17.13;74.04
38806;BME280;25635;51.146;17.162;2022-09-21T11:28:34;100853.14;;;17.56;72.92
38806;BME280;25635;51.146;17.162;2022-09-21T11:31:40;100846.56;;;17.71;72.59
38806;BME280;25635;51.146;17.162;2022-09-21T11:34:28;100837.66;;;17.91;71.52
38806;BME280;25635;51.146;17.162;2022-09-21T11:37:10;100843.14;;;18.00;70.08
38806;BME280;25635;51.146;17.162;2022-09-21T11:57:32;100837.71;;;18.05;68.17
38806;BME280;25635;51.146;17.162;2022-09-21T12:00:18;100834.24;;;18.02;67.11
38806;BME280;25635;51.146;17.162;2022-09-21T12:05:47;100833.16;;;17.95;65.31
38806;BME280;25635;51.146;17.162;2022-09-21T12:13:04;100827.47;;;17.92;67.76
38806;BME280;25635;51.146;17.162;2022-09-21T12:17:29;100823.80;;;18.28;65.66
38806;BME280;25635;51.146;17.162;2022-09-21T12:22:34;100820.66;;;18.30;65.16
38806;BME280;25635;51.146;17.162;2022-09-21T12:25:26;100822.98;;;18.26;65.39
38806;BME280;25635;51.146;17.162;2022-09-21T12:28:13;100810.48;;;18.31;61.64
38806;BME280;25635;51.146;17.162;2022-09-21T12:30:46;100817.11;;;18.31;66.46
38806;BME280;25635;51.146;17.162;2022-09-21T12:33:37;100813.66;;;18.42;65.43
38806;BME280;25635;51.146;17.162;2022-09-21T12:36:12;100806.54;;;18.44;64.05
38806;BME280;25635;51.146;17.162;2022-09-21T12:41:41;100795.56;;;18.56;65.42
38806;BME280;25635;51.146;17.162;2022-09-21T12:47:09;100802.89;;;18.76;63.29
38806;BME280;25635;51.146;17.162;2022-09-21T12:49:42;100804.41;;;18.70;61.79
38806;BME280;25635;51.146;17.162;2022-09-21T12:52:20;100802.31;;;18.67;62.90
38806;BME280;25635;51.146;17.162;2022-09-21T12:58:03;100808.20;;;18.33;61.79
38806;BME280;25635;51.146;17.162;2022-09-21T13:00:33;100804.45;;;18.26;62.49
38806;BME280;25635;51.146;17.162;2022-09-21T13:08:39;100808.20;;;17.89;63.30
38806;BME280;25635;51.146;17.162;2022-09-21T13:11:08;100810.83;;;17.72;63.31
38806;BME280;25635;51.146;17.162;2022-09-21T13:13:57;100806.66;;;17.63;62.40
38806;BME280;25635;51.146;17.162;2022-09-21T13:16:37;100806.20;;;17.48;63.70
38806;BME280;25635;51.146;17.162;2022-09-21T13:21:45;100807.27;;;17.24;62.79
38806;BME280;25635;51.146;17.162;2022-09-21T13:24:29;100811.52;;;17.13;63.06
38806;BME280;25635;51.146;17.162;2022-09-21T13:26:57;100808.34;;;16.99;63.56
38806;BME280;25635;51.146;17.162;2022-09-21T13:29:30;100811.14;;;16.93;64.31
38806;BME280;25635;51.146;17.162;2022-09-21T13:34:40;100806.83;;;16.89;64.55
38806;BME280;25635;51.146;17.162;2022-09-21T13:47:46;100808.88;;;16.76;62.99
38806;BME280;25635;51.146;17.162;2022-09-21T13:50:37;100812.75;;;16.61;63.44
38806;BME280;25635;51.146;17.162;2022-09-21T13:53:29;100814.37;;;16.47;62.10
38806;BME280;25635;51.146;17.162;2022-09-21T13:55:58;100815.95;;;16.35;63.01
38806;BME280;25635;51.146;17.162;2022-09-21T13:58:30;100813.05;;;16.28;63.40
38806;BME280;25635;51.146;17.162;2022-09-21T14:01:03;100805.29;;;16.20;63.15
38806;BME280;25635;51.146;17.162;2022-09-21T14:03:51;100808.44;;;16.16;62.53
38806;BME280;25635;51.146;17.162;2022-09-21T14:06:24;100809.38;;;16.14;63.39
38806;BME280;25635;51.146;17.162;2022-09-21T14:09:01;100808.53;;;16.12;63.48
38806;BME280;25635;51.146;17.162;2022-09-21T14:11:36;100804.66;;;16.09;60.51
38806;BME280;25635;51.146;17.162;2022-09-21T14:16:55;100796.81;;;16.04;63.43
38806;BME280;25635;51.146;17.162;2022-09-21T14:24:48;100788.14;;;15.99;64.15
38806;BME280;25635;51.146;17.162;2022-09-21T14:27:31;100784.67;;;15.97;64.34
38806;BME280;25635;51.146;17.162;2022-09-21T14:33:00;100783.02;;;15.91;64.54
38806;BME280;25635;51.146;17.162;2022-09-21T14:35:29;100786.95;;;15.93;64.81
38806;BME280;25635;51.146;17.162;2022-09-21T14:38:27;100785.23;;;15.92;64.81
38806;BME280;25635;51.146;17.162;2022-09-21T14:41:04;100781.67;;;15.93;65.26
38806;BME280;25635;51.146;17.162;2022-09-21T14:43:31;100782.11;;;15.94;65.21
38806;BME280;25635;51.146;17.162;2022-09-21T14:46:10;100781.17;;;15.96;64.94
38806;BME280;25635;51.146;17.162;2022-09-21T14:54:34;100774.22;;;15.92;64.60
38806;BME280;25635;51.146;17.162;2022-09-21T15:02:45;100764.48;;;15.75;65.10
38806;BME280;25635;51.146;17.162;2022-09-21T15:05:20;100763.20;;;15.72;64.79
38806;BME280;25635;51.146;17.162;2022-09-21T15:08:09;100769.89;;;15.66;65.24
38806;BME280;25635;51.146;17.162;2022-09-21T15:11:13;100770.84;;;15.61;65.52
38806;BME280;25635;51.146;17.162;2022-09-21T15:16:41;100774.16;;;15.50;65.86
38806;BME280;25635;51.146;17.162;2022-09-21T15:19:34;100773.45;;;15.40;65.53
38806;BME280;25635;51.146;17.162;2022-09-21T15:21:55;100772.73;;;15.31;65.98
38806;BME280;25635;51.146;17.162;2022-09-21T15:24:29;100772.84;;;15.25;66.10
38806;BME280;25635;51.146;17.162;2022-09-21T15:27:46;100773.39;;;15.19;66.29
38806;BME280;25635;51.146;17.162;2022-09-21T15:29:46;100773.11;;;15.11;66.36
38806;BME280;25635;51.146;17.162;2022-09-21T15:32:38;100765.03;;;14.96;67.03
38806;BME280;25635;51.146;17.162;2022-09-21T15:35:22;100765.03;;;14.96;67.03
38806;BME280;25635;51.146;17.162;2022-09-21T15:37:53;100777.36;;;14.94;66.99
38806;BME280;25635;51.146;17.162;2022-09-21T15:40:26;100768.73;;;14.84;67.03
38806;BME280;25635;51.146;17.162;2022-09-21T15:48:34;100764.20;;;14.67;67.61
38806;BME280;25635;51.146;17.162;2022-09-21T15:53:41;100773.17;;;14.52;68.10
38806;BME280;25635;51.146;17.162;2022-09-21T15:56:23;100765.36;;;14.46;68.50
38806;BME280;25635;51.146;17.162;2022-09-21T15:59:02;100765.92;;;14.37;68.81
38806;BME280;25635;51.146;17.162;2022-09-21T16:01:31;100768.19;;;14.32;68.96
38806;BME280;25635;51.146;17.162;2022-09-21T16:04:15;100770.49;;;14.25;69.06
38806;BME280;25635;51.146;17.162;2022-09-21T16:06:46;100770.13;;;14.17;69.36
38806;BME280;25635;51.146;17.162;2022-09-21T16:09:46;100770.13;;;14.17;69.36
38806;BME280;25635;51.146;17.162;2022-09-21T16:12:39;100763.31;;;14.04;69.43
38806;BME280;25635;51.146;17.162;2022-09-21T16:15:16;100763.31;;;14.04;69.43
38806;BME280;25635;51.146;17.162;2022-09-21T16:20:41;100777.09;;;13.88;69.47
38806;BME280;25635;51.146;17.162;2022-09-21T16:23:19;100780.72;;;13.78;69.53
38806;BME280;25635;51.146;17.162;2022-09-21T16:25:52;100784.34;;;13.68;69.47
38806;BME280;25635;51.146;17.162;2022-09-21T16:30:55;100788.84;;;13.58;70.01
38806;BME280;25635;51.146;17.162;2022-09-21T16:39:03;100801.20;;;13.48;70.16